createdAt,value
2023-03-26T00:00:12.714Z,58.57
2023-03-26T00:03:16.978Z,58.45
2023-03-26T00:06:22.857Z,58.68
2023-03-26T00:09:25.189Z,58.18
2023-03-26T00:12:27.819Z,58.02
2023-03-26T00:15:30.925Z,58.16
2023-03-26T00:18:34.947Z,58.12
2023-03-26T00:21:37.446Z,57.90
2023-03-26T00:24:40.661Z,57.81
2023-03-26T00:27:45.512Z,57.67
2023-03-26T00:30:49.730Z,56.98
2023-03-26T00:33:56.353Z,56.93
2023-03-26T00:37:02.480Z,56.70
2023-03-26T00:40:07.593Z,57.08
2023-03-26T00:43:18.888Z,56.90
2023-03-26T00:46:22.306Z,56.92
2023-03-26T00:49:26.678Z,57.25
2023-03-26T00:52:29.744Z,57.67
2023-03-26T00:55:32.376Z,57.61
2023-03-26T00:58:35.215Z,57.94
2023-03-26T01:01:37.933Z,57.12
2023-03-26T01:04:40.669Z,57.09
2023-03-26T01:07:44.712Z,56.95
2023-03-26T01:10:50.964Z,57.14
2023-03-26T01:14:18.445Z,57.14
2023-03-26T01:17:22.012Z,57.33
2023-03-26T01:20:30.536Z,57.50
2023-03-26T01:23:37.937Z,57.51
2023-03-26T01:26:58.998Z,57.24
2023-03-26T01:30:13.395Z,57.20
2023-03-26T01:33:43.892Z,57.07
2023-03-26T01:37:30.538Z,57.25
2023-03-26T01:41:19.252Z,57.23
2023-03-26T01:44:29.250Z,57.01
2023-03-26T01:47:32.573Z,56.64
2023-03-26T01:50:34.926Z,56.82
2023-03-26T01:53:43.554Z,56.67
2023-03-26T01:56:57.726Z,56.58
2023-03-26T02:00:23.295Z,56.73
2023-03-26T02:03:31.825Z,56.93
2023-03-26T02:06:44.576Z,56.92
2023-03-26T02:09:52.694Z,57.31
2023-03-26T02:12:56.007Z,57.49
2023-03-26T02:16:01.686Z,58.03
2023-03-26T02:19:04.576Z,58.11
2023-03-26T02:22:11.036Z,58.12
2023-03-26T02:25:16.536Z,58.15
2023-03-26T02:28:20.008Z,58.19
2023-03-26T02:31:26.478Z,58.31
2023-03-26T02:34:29.427Z,58.51
2023-03-26T02:37:33.909Z,58.52
2023-03-26T02:40:38.457Z,58.80
2023-03-26T02:43:40.917Z,58.91
2023-03-26T02:46:44.624Z,58.94
2023-03-26T02:49:47.757Z,58.93
2023-03-26T02:52:50.699Z,58.97
2023-03-26T02:55:53.502Z,59.29
2023-03-26T02:58:56.701Z,59.29
2023-03-26T03:01:59.152Z,59.56
2023-03-26T03:05:08.452Z,59.36
2023-03-26T03:08:11.215Z,59.35
2023-03-26T03:11:22.245Z,59.34
2023-03-26T03:14:24.709Z,59.35
2023-03-26T03:17:27.606Z,59.53
2023-03-26T03:20:35.284Z,59.29
2023-03-26T03:23:38.216Z,59.12
2023-03-26T03:26:42.477Z,59.02
2023-03-26T03:29:46.323Z,58.76
2023-03-26T03:32:49.607Z,59.06
2023-03-26T03:35:52.959Z,59.23
2023-03-26T03:38:55.591Z,59.32
2023-03-26T03:41:58.851Z,59.22
2023-03-26T03:45:02.112Z,59.22
2023-03-26T03:48:07.733Z,59.49
2023-03-26T03:51:11.170Z,59.60
2023-03-26T03:54:14.935Z,59.37
2023-03-26T03:57:18.830Z,59.71
2023-03-26T04:00:22.735Z,59.53
2023-03-26T04:03:33.490Z,59.77
2023-03-26T04:06:37.761Z,59.83
2023-03-26T04:09:41.099Z,59.68
2023-03-26T04:12:44.947Z,59.92
2023-03-26T04:15:47.976Z,60.28
2023-03-26T04:18:50.260Z,60.59
2023-03-26T04:21:54.398Z,60.50
2023-03-26T04:24:57.054Z,60.62
2023-03-26T04:28:06.540Z,60.81
2023-03-26T04:31:15.760Z,60.92
2023-03-26T04:34:26.371Z,60.90
2023-03-26T04:37:36.304Z,60.84
2023-03-26T04:40:40.398Z,60.69
2023-03-26T04:43:47.335Z,61.18
2023-03-26T04:46:53.045Z,61.46
2023-03-26T04:49:56.120Z,61.24
2023-03-26T04:52:59.095Z,61.05
2023-03-26T04:56:32.265Z,60.74
2023-03-26T04:59:41.420Z,60.62
2023-03-26T05:02:45.904Z,60.57
2023-03-26T05:05:49.754Z,60.27
2023-03-26T05:08:52.113Z,60.14
2023-03-26T05:11:57.458Z,59.58
2023-03-26T05:15:00.380Z,59.47
2023-03-26T05:18:03.738Z,59.05
2023-03-26T05:21:06.738Z,58.63
2023-03-26T05:24:09.537Z,58.08
2023-03-26T05:27:17.070Z,57.67
2023-03-26T05:30:21.441Z,57.39
2023-03-26T05:33:24.446Z,56.62
2023-03-26T05:36:28.595Z,56.42
2023-03-26T05:39:33.783Z,56.28
2023-03-26T05:42:39.310Z,56.15
2023-03-26T05:45:42.243Z,56.18
2023-03-26T05:48:45.807Z,55.71
2023-03-26T05:51:48.269Z,55.18
2023-03-26T05:54:51.373Z,54.81
2023-03-26T05:57:56.108Z,54.53
2023-03-26T06:01:09.851Z,53.96
2023-03-26T06:04:16.250Z,53.61
2023-03-26T06:07:19.947Z,53.29
2023-03-26T06:10:24.206Z,52.48
2023-03-26T06:13:26.644Z,51.08
2023-03-26T06:16:29.404Z,50.81
2023-03-26T06:19:31.928Z,50.36
2023-03-26T06:22:34.623Z,50.08
2023-03-26T06:25:38.558Z,49.60
2023-03-26T06:28:41.738Z,49.28
2023-03-26T06:31:45.516Z,48.72
2023-03-26T06:34:48.834Z,48.30
2023-03-26T06:37:51.384Z,47.61
2023-03-26T06:40:54.170Z,46.80
2023-03-26T06:43:56.944Z,46.92
2023-03-26T06:47:00.218Z,46.28
2023-03-26T06:50:05.668Z,45.48
2023-03-26T06:53:11.327Z,45.64
2023-03-26T06:56:15.230Z,45.01
2023-03-26T06:59:18.163Z,45.51
2023-03-26T07:02:27.328Z,46.16
2023-03-26T07:05:41.633Z,46.34
2023-03-26T07:08:44.819Z,46.35
2023-03-26T07:11:49.009Z,46.33
2023-03-26T07:14:53.216Z,45.90
2023-03-26T07:17:57.058Z,45.52
2023-03-26T07:20:59.958Z,45.12
2023-03-26T07:24:05.345Z,44.87
2023-03-26T07:27:31.742Z,44.59
2023-03-26T07:30:59.684Z,44.25
2023-03-26T07:34:25.287Z,44.31
2023-03-26T07:37:49.392Z,44.24
2023-03-26T07:41:12.137Z,44.33
2023-03-26T07:44:35.748Z,43.71
2023-03-26T07:47:42.436Z,43.31
2023-03-26T07:50:48.377Z,42.82
2023-03-26T07:53:53.286Z,42.11
2023-03-26T07:57:02.173Z,41.63
2023-03-26T08:00:22.115Z,41.84
2023-03-26T08:03:50.936Z,40.73
2023-03-26T08:07:08.123Z,41.14
2023-03-26T08:10:48.632Z,41.38
2023-03-26T08:14:00.829Z,42.03
2023-03-26T08:17:13.888Z,42.16
2023-03-26T08:20:34.472Z,42.43
2023-03-26T08:23:50.813Z,43.07
2023-03-26T08:27:13.722Z,42.75
2023-03-26T08:30:22.596Z,42.91
2023-03-26T08:33:27.480Z,43.38
2023-03-26T08:36:30.244Z,43.46
2023-03-26T08:39:32.530Z,43.73
2023-03-26T08:42:37.951Z,45.50
2023-03-26T08:46:14.190Z,46.81
2023-03-26T08:49:17.065Z,47.02
2023-03-26T08:52:34.300Z,47.88
2023-03-26T08:55:56.665Z,48.14
2023-03-26T08:59:25.815Z,48.14
2023-03-26T09:03:06.694Z,45.73
2023-03-26T09:06:17.495Z,46.33
2023-03-26T09:09:48.806Z,44.99
2023-03-26T09:13:24.985Z,45.23
2023-03-26T09:17:10.738Z,45.05
2023-03-26T09:20:34.591Z,44.72
2023-03-26T09:23:43.372Z,43.47
2023-03-26T09:27:07.513Z,42.24
2023-03-26T09:30:36.712Z,40.38
2023-03-26T09:34:05.742Z,39.83
2023-03-26T09:37:21.212Z,40.02
2023-03-26T09:40:52.946Z,40.29
2023-03-26T09:44:17.214Z,39.28
2023-03-26T09:47:52.725Z,38.45
2023-03-26T09:51:07.364Z,38.18
2023-03-26T09:54:39.460Z,39.00
2023-03-26T09:58:21.413Z,38.28
2023-03-26T10:01:33.322Z,37.89
2023-03-26T10:05:11.017Z,38.17
2023-03-26T10:08:39.276Z,37.80
2023-03-26T10:12:11.978Z,37.61
2023-03-26T10:15:17.121Z,36.76
2023-03-26T10:18:44.304Z,36.54
2023-03-26T10:22:16.669Z,37.31
2023-03-26T10:25:33.747Z,37.75
2023-03-26T10:29:00.182Z,38.22
2023-03-26T10:32:22.836Z,38.37
2023-03-26T10:35:43.895Z,38.87
2023-03-26T10:39:09.350Z,40.88
2023-03-26T10:42:37.077Z,48.32
2023-03-26T10:46:10.643Z,52.43
2023-03-26T10:49:22.203Z,52.39
2023-03-26T10:52:46.952Z,51.36
2023-03-26T10:55:57.936Z,50.63
2023-03-26T10:59:06.377Z,50.04
2023-03-26T11:02:37.362Z,48.81
2023-03-26T11:05:54.106Z,47.92
2023-03-26T11:09:15.357Z,46.37
2023-03-26T11:12:26.704Z,46.03
2023-03-26T11:15:33.247Z,46.31
2023-03-26T11:18:43.565Z,46.66
2023-03-26T11:22:13.654Z,46.01
2023-03-26T11:25:22.250Z,44.46
2023-03-26T11:29:32.813Z,44.72
2023-03-26T11:32:45.082Z,44.34
2023-03-26T11:35:51.149Z,44.21
2023-03-26T11:38:57.999Z,43.73
2023-03-26T11:42:08.175Z,43.83
2023-03-26T11:45:18.494Z,42.91
2023-03-26T11:48:33.193Z,42.09
2023-03-26T11:51:38.210Z,41.62
2023-03-26T11:54:40.655Z,40.75
2023-03-26T11:57:50.446Z,39.80
2023-03-26T12:00:54.854Z,39.25
2023-03-26T12:04:04.188Z,38.99
2023-03-26T12:07:12.741Z,38.78
2023-03-26T12:10:28.985Z,40.39
2023-03-26T12:13:39.588Z,40.59
2023-03-26T12:16:59.431Z,39.93
2023-03-26T12:20:22.592Z,40.09
2023-03-26T12:23:38.789Z,38.37
2023-03-26T12:26:45.037Z,37.73
2023-03-26T12:30:10.982Z,37.90
2023-03-26T12:33:26.149Z,37.20
2023-03-26T12:36:31.665Z,36.84
2023-03-26T12:40:10.817Z,36.03
2023-03-26T12:44:54.827Z,35.47
2023-03-26T12:48:00.516Z,35.24
2023-03-26T12:50:17.029Z,34.18
2023-03-26T12:53:41.716Z,33.55
2023-03-26T12:57:22.336Z,32.86
2023-03-26T13:00:31.692Z,32.92
2023-03-26T13:03:59.501Z,31.26
2023-03-26T13:07:15.305Z,31.28
2023-03-26T13:10:30.539Z,31.44
2023-03-26T13:14:14.313Z,32.14
2023-03-26T13:17:32.470Z,32.67
2023-03-26T13:20:53.940Z,31.51
2023-03-26T13:24:02.570Z,32.30
2023-03-26T13:27:16.801Z,32.16
2023-03-26T13:30:31.556Z,32.35
2023-03-26T13:33:44.969Z,33.33
2023-03-26T13:36:47.646Z,34.08
2023-03-26T13:39:56.915Z,33.94
2023-03-26T13:43:19.084Z,33.44
2023-03-26T13:46:27.120Z,33.21
2023-03-26T13:49:37.405Z,31.75
2023-03-26T13:52:46.391Z,30.57
2023-03-26T13:55:55.705Z,31.72
2023-03-26T13:59:03.472Z,31.51
2023-03-26T14:02:15.042Z,31.05
2023-03-26T14:05:24.844Z,31.03
2023-03-26T14:08:27.164Z,31.17
2023-03-26T14:11:46.740Z,30.55
2023-03-26T14:14:59.094Z,30.38
2023-03-26T14:18:06.170Z,30.36
2023-03-26T14:21:46.470Z,30.67
2023-03-26T14:25:13.871Z,30.91
2023-03-26T14:28:41.487Z,30.52
2023-03-26T14:32:09.023Z,31.18
2023-03-26T14:35:39.126Z,30.77
2023-03-26T14:38:57.551Z,29.88
2023-03-26T14:42:07.959Z,30.32
2023-03-26T14:45:48.691Z,30.61
2023-03-26T14:48:53.842Z,30.31
2023-03-26T14:52:18.336Z,29.82
2023-03-26T14:55:23.670Z,29.51
2023-03-26T14:58:54.224Z,28.24
2023-03-26T15:02:34.138Z,27.86
2023-03-26T15:06:04.097Z,27.84
2023-03-26T15:09:46.322Z,28.15
2023-03-26T15:13:12.584Z,28.29
2023-03-26T15:16:33.747Z,28.43
2023-03-26T15:19:57.717Z,28.44
2023-03-26T15:23:24.539Z,28.77
2023-03-26T15:26:49.718Z,29.16
2023-03-26T15:30:00.817Z,29.57
2023-03-26T15:33:10.237Z,29.82
2023-03-26T15:36:34.679Z,30.21
2023-03-26T15:40:19.155Z,30.59
2023-03-26T15:43:21.882Z,30.83
2023-03-26T15:46:33.411Z,31.02
2023-03-26T15:49:42.711Z,31.15
2023-03-26T15:53:29.666Z,31.16
2023-03-26T15:57:01.287Z,31.15
2023-03-26T16:00:22.495Z,31.61
2023-03-26T16:03:39.626Z,31.95
2023-03-26T16:06:54.862Z,32.36
2023-03-26T16:10:32.028Z,32.63
2023-03-26T16:13:34.473Z,32.83
2023-03-26T16:16:57.349Z,33.11
2023-03-26T16:20:46.676Z,33.31
2023-03-26T16:23:49.227Z,33.67
2023-03-26T16:26:51.515Z,33.98
2023-03-26T16:30:00.132Z,34.23
2023-03-26T16:33:19.170Z,34.11
2023-03-26T16:36:30.948Z,34.15
2023-03-26T16:39:44.290Z,34.23
2023-03-26T16:43:20.835Z,34.24
2023-03-26T16:46:52.670Z,34.36
2023-03-26T16:50:14.076Z,34.51
2023-03-26T16:53:58.809Z,34.56
2023-03-26T16:57:41.602Z,34.81
2023-03-26T17:00:59.853Z,35.45
2023-03-26T17:04:25.035Z,35.73
2023-03-26T17:07:38.971Z,36.00
2023-03-26T17:10:56.755Z,36.23
2023-03-26T17:14:11.153Z,36.52
2023-03-26T17:17:19.981Z,36.70
2023-03-26T17:20:33.516Z,36.94
2023-03-26T17:24:00.034Z,37.10
2023-03-26T17:27:41.783Z,37.31
2023-03-26T17:30:56.685Z,37.57
2023-03-26T17:34:39.212Z,37.74
2023-03-26T17:37:45.647Z,37.86
2023-03-26T17:40:54.813Z,38.03
2023-03-26T17:43:57.708Z,38.28
2023-03-26T17:47:00.833Z,38.37
2023-03-26T17:50:06.931Z,38.55
2023-03-26T17:53:21.151Z,38.59
2023-03-26T17:56:29.502Z,38.58
2023-03-26T17:59:32.786Z,38.65
2023-03-26T18:02:42.229Z,38.72
2023-03-26T18:05:46.357Z,38.69
2023-03-26T18:09:37.149Z,38.79
2023-03-26T18:12:57.618Z,38.71
2023-03-26T18:16:14.956Z,38.73
2023-03-26T18:19:21.991Z,38.78
2023-03-26T18:22:28.602Z,38.75
2023-03-26T18:25:33.979Z,38.84
2023-03-26T18:28:42.593Z,38.84
2023-03-26T18:31:48.221Z,38.90
2023-03-26T18:34:59.027Z,38.93
2023-03-26T18:38:03.517Z,39.16
2023-03-26T18:41:15.299Z,39.38
2023-03-26T18:44:19.626Z,39.38
2023-03-26T18:47:22.782Z,39.49
2023-03-26T18:50:36.891Z,39.49
2023-03-26T18:53:48.325Z,39.49
2023-03-26T18:56:52.307Z,39.40
2023-03-26T18:59:57.364Z,39.62
2023-03-26T19:03:08.184Z,39.58
2023-03-26T19:06:14.225Z,39.75
2023-03-26T19:09:31.006Z,39.84
2023-03-26T19:12:35.715Z,39.90
2023-03-26T19:15:38.557Z,40.04
2023-03-26T19:18:44.264Z,40.10
2023-03-26T19:21:48.463Z,40.19
2023-03-26T19:24:57.646Z,40.49
2023-03-26T19:28:00.314Z,41.09
2023-03-26T19:31:14.913Z,41.29
2023-03-26T19:34:31.653Z,41.38
2023-03-26T19:37:34.074Z,41.49
2023-03-26T19:40:36.820Z,41.75
2023-03-26T19:43:39.624Z,42.79
2023-03-26T19:46:53.383Z,42.60
2023-03-26T19:50:01.406Z,42.92
2023-03-26T19:53:29.850Z,43.02
2023-03-26T19:56:33.747Z,43.23
2023-03-26T19:59:36.419Z,43.66
2023-03-26T20:02:38.974Z,43.74
2023-03-26T20:05:41.729Z,43.17
2023-03-26T20:08:44.336Z,43.16
2023-03-26T20:11:47.078Z,42.98
2023-03-26T20:14:49.480Z,42.88
2023-03-26T20:17:55.724Z,42.90
2023-03-26T20:20:58.370Z,42.95
2023-03-26T20:24:01.701Z,42.97
2023-03-26T20:27:04.127Z,43.10
2023-03-26T20:30:08.113Z,43.22
2023-03-26T20:33:17.954Z,43.46
2023-03-26T20:36:32.999Z,43.49
2023-03-26T20:39:37.835Z,43.42
2023-03-26T20:42:41.645Z,43.32
2023-03-26T20:45:45.684Z,43.55
2023-03-26T20:48:48.673Z,43.79
2023-03-26T20:51:51.072Z,43.94
2023-03-26T20:54:53.759Z,44.13
2023-03-26T20:57:56.139Z,44.29
2023-03-26T21:01:01.272Z,44.52
2023-03-26T21:04:04.444Z,44.70
2023-03-26T21:07:17.689Z,44.78
2023-03-26T21:10:21.512Z,44.79
2023-03-26T21:13:37.288Z,44.94
2023-03-26T21:16:39.841Z,45.34
2023-03-26T21:19:43.700Z,45.42
2023-03-26T21:23:06.939Z,45.43
2023-03-26T21:26:26.504Z,45.91
2023-03-26T21:29:29.121Z,46.01
2023-03-26T21:32:32.394Z,46.14
2023-03-26T21:35:35.253Z,46.51
2023-03-26T21:38:38.704Z,47.22
2023-03-26T21:42:05.354Z,50.50
2023-03-26T21:45:09.278Z,52.17
2023-03-26T21:48:12.699Z,54.28
2023-03-26T21:51:19.261Z,56.01
2023-03-26T21:54:30.091Z,56.63
2023-03-26T21:58:12.246Z,56.66
2023-03-26T22:01:36.107Z,56.34
2023-03-26T22:05:04.473Z,56.46
2023-03-26T22:08:10.840Z,56.51
2023-03-26T22:11:13.607Z,55.38
2023-03-26T22:14:15.966Z,56.23
2023-03-26T22:17:19.136Z,56.32
2023-03-26T22:20:27.949Z,56.74
2023-03-26T22:23:38.241Z,58.09
2023-03-26T22:26:41.482Z,58.99
2023-03-26T22:29:44.079Z,59.52
2023-03-26T22:32:46.978Z,60.64
2023-03-26T22:35:49.711Z,61.69
2023-03-26T22:38:54.073Z,62.74
2023-03-26T22:41:57.558Z,63.50
2023-03-26T22:44:59.849Z,64.62
2023-03-26T22:48:04.604Z,66.42
2023-03-26T22:51:09.203Z,66.30
2023-03-26T22:54:11.832Z,65.80
2023-03-26T22:57:14.322Z,63.88
2023-03-26T23:00:19.472Z,65.67
2023-03-26T23:03:35.314Z,66.90
2023-03-26T23:06:38.212Z,68.98
2023-03-26T23:09:40.610Z,70.08
2023-03-26T23:12:43.285Z,70.60
2023-03-26T23:15:48.608Z,70.01
2023-03-26T23:18:51.302Z,71.82
2023-03-26T23:21:53.670Z,71.22
2023-03-26T23:24:56.308Z,71.98
2023-03-26T23:27:58.646Z,71.43
2023-03-26T23:31:04.408Z,72.09
2023-03-26T23:34:06.785Z,72.37
2023-03-26T23:37:11.168Z,72.71
2023-03-26T23:40:13.880Z,72.49
2023-03-26T23:43:17.201Z,72.86
2023-03-26T23:46:23.807Z,73.33
2023-03-26T23:49:27.059Z,74.07
2023-03-26T23:52:30.550Z,75.31
2023-03-26T23:55:36.516Z,76.18
2023-03-26T23:58:40.242Z,77.06
